sensor_id;sensor_type;location;lat;lon;timestamp;P1;durP1;ratioP1;P2;durP2;ratioP2
11418;SDS011;32800;44.876;13.880;2022-10-19T00:01:18;15.80;;;14.20;;
11418;SDS011;32800;44.876;13.880;2022-10-19T00:03:46;15.68;;;14.10;;
11418;SDS011;32800;44.876;13.880;2022-10-19T00:06:14;16.33;;;14.75;;
11418;SDS011;32800;44.876;13.880;2022-10-19T00:08:50;15.90;;;14.35;;
11418;SDS011;32800;44.876;13.880;2022-10-19T00:11:17;15.15;;;13.65;;
11418;SDS011;32800;44.876;13.880;2022-10-19T00:13:42;16.08;;;14.55;;
11418;SDS011;32800;44.876;13.880;2022-10-19T00:16:12;14.55;;;13.15;;
11418;SDS011;32800;44.876;13.880;2022-10-19T00:18:39;16.15;;;14.48;;
11418;SDS011;32800;44.876;13.880;2022-10-19T00:21:07;15.32;;;13.88;;
11418;SDS011;32800;44.876;13.880;2022-10-19T00:23:34;15.50;;;14.00;;
11418;SDS011;32800;44.876;13.880;2022-10-19T00:26:00;15.98;;;14.40;;
11418;SDS011;32800;44.876;13.880;2022-10-19T00:28:26;15.85;;;14.25;;
11418;SDS011;32800;44.876;13.880;2022-10-19T00:30:52;15.80;;;14.23;;
11418;SDS011;32800;44.876;13.880;2022-10-19T00:33:17;16.10;;;14.50;;
11418;SDS011;32800;44.876;13.880;2022-10-19T00:35:46;15.95;;;14.32;;
11418;SDS011;32800;44.876;13.880;2022-10-19T00:38:16;15.60;;;14.07;;
11418;SDS011;32800;44.876;13.880;2022-10-19T00:40:41;16.05;;;14.45;;
11418;SDS011;32800;44.876;13.880;2022-10-19T00:43:10;14.77;;;13.38;;
11418;SDS011;32800;44.876;13.880;2022-10-19T00:45:38;15.82;;;14.23;;
11418;SDS011;32800;44.876;13.880;2022-10-19T00:48:04;16.00;;;14.40;;
11418;SDS011;32800;44.876;13.880;2022-10-19T00:50:30;15.60;;;14.10;;
11418;SDS011;32800;44.876;13.880;2022-10-19T00:52:56;15.73;;;14.13;;
11418;SDS011;32800;44.876;13.880;2022-10-19T00:55:22;15.77;;;14.25;;
11418;SDS011;32800;44.876;13.880;2022-10-19T00:57:48;16.13;;;14.43;;
11418;SDS011;32800;44.876;13.880;2022-10-19T01:00:14;15.50;;;14.05;;
11418;SDS011;32800;44.876;13.880;2022-10-19T01:02:39;15.18;;;13.57;;
11418;SDS011;32800;44.876;13.880;2022-10-19T01:05:05;16.13;;;13.93;;
11418;SDS011;32800;44.876;13.880;2022-10-19T01:07:31;15.65;;;14.07;;
11418;SDS011;32800;44.876;13.880;2022-10-19T01:09:57;14.93;;;13.45;;
11418;SDS011;32800;44.876;13.880;2022-10-19T01:12:28;15.27;;;13.77;;
11418;SDS011;32800;44.876;13.880;2022-10-19T01:17:32;15.27;;;13.68;;
11418;SDS011;32800;44.876;13.880;2022-10-19T01:37:26;14.77;;;13.37;;
11418;SDS011;32800;44.876;13.880;2022-10-19T01:40:13;15.00;;;13.45;;
11418;SDS011;32800;44.876;13.880;2022-10-19T01:42:49;14.70;;;13.30;;
11418;SDS011;32800;44.876;13.880;2022-10-19T01:45:26;14.70;;;13.20;;
11418;SDS011;32800;44.876;13.880;2022-10-19T01:47:56;16.07;;;14.47;;
11418;SDS011;32800;44.876;13.880;2022-10-19T01:50:30;14.35;;;12.95;;
11418;SDS011;32800;44.876;13.880;2022-10-19T01:53:03;14.90;;;13.50;;
11418;SDS011;32800;44.876;13.880;2022-10-19T01:55:31;13.80;;;12.50;;
11418;SDS011;32800;44.876;13.880;2022-10-19T01:57:59;14.75;;;13.35;;
11418;SDS011;32800;44.876;13.880;2022-10-19T02:00:27;14.63;;;13.32;;
11418;SDS011;32800;44.876;13.880;2022-10-19T02:02:53;14.25;;;12.85;;
11418;SDS011;32800;44.876;13.880;2022-10-19T02:05:20;14.35;;;12.95;;
11418;SDS011;32800;44.876;13.880;2022-10-19T02:07:48;14.27;;;12.98;;
11418;SDS011;32800;44.876;13.880;2022-10-19T02:10:15;14.48;;;13.07;;
11418;SDS011;32800;44.876;13.880;2022-10-19T02:12:41;14.63;;;13.13;;
11418;SDS011;32800;44.876;13.880;2022-10-19T02:15:11;13.32;;;12.02;;
11418;SDS011;32800;44.876;13.880;2022-10-19T02:17:40;14.13;;;12.77;;
11418;SDS011;32800;44.876;13.880;2022-10-19T02:20:08;13.90;;;12.57;;
11418;SDS011;32800;44.876;13.880;2022-10-19T02:22:34;14.93;;;13.52;;
11418;SDS011;32800;44.876;13.880;2022-10-19T02:25:00;14.63;;;13.23;;
11418;SDS011;32800;44.876;13.880;2022-10-19T02:27:25;14.20;;;12.80;;
11418;SDS011;32800;44.876;13.880;2022-10-19T02:29:51;13.70;;;12.30;;
11418;SDS011;32800;44.876;13.880;2022-10-19T02:32:17;14.13;;;12.82;;
11418;SDS011;32800;44.876;13.880;2022-10-19T02:34:42;13.73;;;12.43;;
11418;SDS011;32800;44.876;13.880;2022-10-19T02:37:08;13.95;;;12.65;;
11418;SDS011;32800;44.876;13.880;2022-10-19T02:39:34;14.15;;;12.85;;
11418;SDS011;32800;44.876;13.880;2022-10-19T02:47:28;13.10;;;11.90;;
11418;SDS011;32800;44.876;13.880;2022-10-19T02:49:57;13.63;;;12.33;;
11418;SDS011;32800;44.876;13.880;2022-10-19T02:52:22;13.57;;;12.33;;
11418;SDS011;32800;44.876;13.880;2022-10-19T02:54:48;13.23;;;11.93;;
11418;SDS011;32800;44.876;13.880;2022-10-19T02:57:15;12.85;;;11.55;;
11418;SDS011;32800;44.876;13.880;2022-10-19T02:59:42;13.38;;;12.02;;
11418;SDS011;32800;44.876;13.880;2022-10-19T03:02:07;12.80;;;11.60;;
11418;SDS011;32800;44.876;13.880;2022-10-19T03:04:33;13.13;;;11.87;;
11418;SDS011;32800;44.876;13.880;2022-10-19T03:06:59;13.67;;;12.37;;
11418;SDS011;32800;44.876;13.880;2022-10-19T03:09:25;13.00;;;11.70;;
11418;SDS011;32800;44.876;13.880;2022-10-19T03:11:50;12.88;;;11.68;;
11418;SDS011;32800;44.876;13.880;2022-10-19T03:14:16;13.53;;;12.23;;
11418;SDS011;32800;44.876;13.880;2022-10-19T03:16:41;13.40;;;12.20;;
11418;SDS011;32800;44.876;13.880;2022-10-19T03:19:07;12.57;;;11.27;;
11418;SDS011;32800;44.876;13.880;2022-10-19T03:21:33;12.70;;;11.50;;
11418;SDS011;32800;44.876;13.880;2022-10-19T03:23:59;12.23;;;11.02;;
11418;SDS011;32800;44.876;13.880;2022-10-19T03:26:25;13.47;;;12.20;;
11418;SDS011;32800;44.876;13.880;2022-10-19T03:28:51;13.25;;;11.98;;
11418;SDS011;32800;44.876;13.880;2022-10-19T03:31:17;13.43;;;12.13;;
11418;SDS011;32800;44.876;13.880;2022-10-19T03:33:42;12.98;;;11.68;;
11418;SDS011;32800;44.876;13.880;2022-10-19T03:36:13;12.68;;;11.48;;
11418;SDS011;32800;44.876;13.880;2022-10-19T03:38:44;13.47;;;12.13;;
11418;SDS011;32800;44.876;13.880;2022-10-19T03:41:10;13.17;;;11.87;;
11418;SDS011;32800;44.876;13.880;2022-10-19T03:43:35;12.70;;;11.50;;
11418;SDS011;32800;44.876;13.880;2022-10-19T03:46:01;12.77;;;11.57;;
11418;SDS011;32800;44.876;13.880;2022-10-19T03:48:26;12.57;;;11.38;;
11418;SDS011;32800;44.876;13.880;2022-10-19T03:51:02;12.18;;;11.05;;
11418;SDS011;32800;44.876;13.880;2022-10-19T03:53:33;12.65;;;11.45;;
11418;SDS011;32800;44.876;13.880;2022-10-19T03:58:33;12.37;;;11.17;;
11418;SDS011;32800;44.876;13.880;2022-10-19T04:00:59;12.50;;;11.27;;
11418;SDS011;32800;44.876;13.880;2022-10-19T04:03:25;12.82;;;11.52;;
11418;SDS011;32800;44.876;13.880;2022-10-19T04:05:50;12.63;;;11.43;;
11418;SDS011;32800;44.876;13.880;2022-10-19T04:08:16;12.87;;;11.67;;
11418;SDS011;32800;44.876;13.880;2022-10-19T04:10:42;12.47;;;11.37;;
11418;SDS011;32800;44.876;13.880;2022-10-19T04:13:07;12.27;;;11.10;;
11418;SDS011;32800;44.876;13.880;2022-10-19T04:15:33;12.30;;;11.20;;
11418;SDS011;32800;44.876;13.880;2022-10-19T04:17:58;11.70;;;10.60;;
11418;SDS011;32800;44.876;13.880;2022-10-19T04:20:24;12.25;;;11.07;;
11418;SDS011;32800;44.876;13.880;2022-10-19T04:22:51;12.13;;;11.00;;
11418;SDS011;32800;44.876;13.880;2022-10-19T04:25:17;11.87;;;10.77;;
11418;SDS011;32800;44.876;13.880;2022-10-19T04:27:42;11.70;;;10.60;;
11418;SDS011;32800;44.876;13.880;2022-10-19T04:30:08;11.40;;;10.30;;
11418;SDS011;32800;44.876;13.880;2022-10-19T04:32:34;12.83;;;11.63;;
11418;SDS011;32800;44.876;13.880;2022-10-19T04:34:59;12.40;;;11.30;;
11418;SDS011;32800;44.876;13.880;2022-10-19T04:37:25;12.43;;;11.23;;
11418;SDS011;32800;44.876;13.880;2022-10-19T04:39:50;12.50;;;11.30;;
11418;SDS011;32800;44.876;13.880;2022-10-19T04:42:16;12.10;;;11.00;;
11418;SDS011;32800;44.876;13.880;2022-10-19T04:44:41;12.10;;;10.90;;
11418;SDS011;32800;44.876;13.880;2022-10-19T04:47:07;12.73;;;11.53;;
11418;SDS011;32800;44.876;13.880;2022-10-19T04:49:32;12.50;;;11.30;;
11418;SDS011;32800;44.876;13.880;2022-10-19T04:51:58;12.65;;;11.43;;
11418;SDS011;32800;44.876;13.880;2022-10-19T04:54:24;11.90;;;10.80;;
11418;SDS011;32800;44.876;13.880;2022-10-19T04:56:49;11.97;;;10.77;;
11418;SDS011;32800;44.876;13.880;2022-10-19T04:59:15;12.03;;;10.93;;
11418;SDS011;32800;44.876;13.880;2022-10-19T05:01:40;11.23;;;10.23;;
11418;SDS011;32800;44.876;13.880;2022-10-19T05:04:06;11.20;;;10.20;;
11418;SDS011;32800;44.876;13.880;2022-10-19T05:06:33;11.93;;;10.83;;
11418;SDS011;32800;44.876;13.880;2022-10-19T05:08:58;11.37;;;10.27;;
11418;SDS011;32800;44.876;13.880;2022-10-19T05:11:24;12.27;;;11.17;;
11418;SDS011;32800;44.876;13.880;2022-10-19T05:13:50;11.95;;;10.75;;
11418;SDS011;32800;44.876;13.880;2022-10-19T05:16:16;11.73;;;10.63;;
11418;SDS011;32800;44.876;13.880;2022-10-19T05:18:50;11.60;;;10.50;;
11418;SDS011;32800;44.876;13.880;2022-10-19T05:21:20;11.93;;;10.73;;
11418;SDS011;32800;44.876;13.880;2022-10-19T05:23:46;12.07;;;10.87;;
11418;SDS011;32800;44.876;13.880;2022-10-19T05:26:15;11.73;;;10.63;;
11418;SDS011;32800;44.876;13.880;2022-10-19T05:28:43;12.30;;;11.17;;
11418;SDS011;32800;44.876;13.880;2022-10-19T05:31:19;12.37;;;11.17;;
11418;SDS011;32800;44.876;13.880;2022-10-19T05:33:44;12.63;;;11.47;;
11418;SDS011;32800;44.876;13.880;2022-10-19T05:36:20;12.50;;;11.30;;
11418;SDS011;32800;44.876;13.880;2022-10-19T05:38:48;12.83;;;11.63;;
11418;SDS011;32800;44.876;13.880;2022-10-19T05:41:14;13.43;;;11.85;;
11418;SDS011;32800;44.876;13.880;2022-10-19T05:43:41;12.83;;;11.63;;
11418;SDS011;32800;44.876;13.880;2022-10-19T05:46:08;13.23;;;11.90;;
11418;SDS011;32800;44.876;13.880;2022-10-19T05:48:35;12.47;;;11.27;;
11418;SDS011;32800;44.876;13.880;2022-10-19T05:51:01;12.40;;;11.30;;
11418;SDS011;32800;44.876;13.880;2022-10-19T05:53:29;13.23;;;12.03;;
11418;SDS011;32800;44.876;13.880;2022-10-19T05:55:55;12.05;;;10.88;;
11418;SDS011;32800;44.876;13.880;2022-10-19T05:58:21;12.07;;;10.93;;
11418;SDS011;32800;44.876;13.880;2022-10-19T06:00:54;11.75;;;10.65;;
11418;SDS011;32800;44.876;13.880;2022-10-19T06:03:21;12.60;;;11.40;;
11418;SDS011;32800;44.876;13.880;2022-10-19T06:05:47;13.00;;;11.60;;
11418;SDS011;32800;44.876;13.880;2022-10-19T06:08:13;12.33;;;11.13;;
11418;SDS011;32800;44.876;13.880;2022-10-19T06:10:43;12.30;;;11.10;;
11418;SDS011;32800;44.876;13.880;2022-10-19T06:13:09;12.70;;;11.10;;
11418;SDS011;32800;44.876;13.880;2022-10-19T06:15:35;12.63;;;10.80;;
11418;SDS011;32800;44.876;13.880;2022-10-19T06:18:04;12.60;;;11.40;;
11418;SDS011;32800;44.876;13.880;2022-10-19T06:20:37;13.23;;;11.83;;
11418;SDS011;32800;44.876;13.880;2022-10-19T06:23:05;12.20;;;11.00;;
11418;SDS011;32800;44.876;13.880;2022-10-19T06:25:32;12.53;;;11.23;;
11418;SDS011;32800;44.876;13.880;2022-10-19T06:27:58;12.63;;;11.43;;
11418;SDS011;32800;44.876;13.880;2022-10-19T06:30:24;12.27;;;11.07;;
11418;SDS011;32800;44.876;13.880;2022-10-19T06:32:50;12.30;;;11.07;;
11418;SDS011;32800;44.876;13.880;2022-10-19T06:35:16;11.87;;;10.67;;
11418;SDS011;32800;44.876;13.880;2022-10-19T06:37:41;12.48;;;11.27;;
11418;SDS011;32800;44.876;13.880;2022-10-19T06:40:08;11.73;;;10.63;;
11418;SDS011;32800;44.876;13.880;2022-10-19T06:42:34;12.35;;;11.18;;
11418;SDS011;32800;44.876;13.880;2022-10-19T06:45:03;13.37;;;11.10;;
11418;SDS011;32800;44.876;13.880;2022-10-19T06:47:30;12.13;;;10.93;;
11418;SDS011;32800;44.876;13.880;2022-10-19T06:49:57;12.18;;;11.00;;
11418;SDS011;32800;44.876;13.880;2022-10-19T06:52:22;12.38;;;11.18;;
11418;SDS011;32800;44.876;13.880;2022-10-19T06:54:48;12.68;;;11.57;;
11418;SDS011;32800;44.876;13.880;2022-10-19T06:57:13;12.30;;;11.18;;
11418;SDS011;32800;44.876;13.880;2022-10-19T06:59:39;11.85;;;10.75;;
11418;SDS011;32800;44.876;13.880;2022-10-19T07:02:04;12.68;;;11.48;;
11418;SDS011;32800;44.876;13.880;2022-10-19T07:04:30;12.25;;;11.07;;
11418;SDS011;32800;44.876;13.880;2022-10-19T07:06:55;12.25;;;11.15;;
11418;SDS011;32800;44.876;13.880;2022-10-19T07:09:21;12.82;;;11.60;;
11418;SDS011;32800;44.876;13.880;2022-10-19T07:11:46;12.57;;;11.48;;
11418;SDS011;32800;44.876;13.880;2022-10-19T07:14:12;12.35;;;11.15;;
11418;SDS011;32800;44.876;13.880;2022-10-19T07:16:38;12.02;;;10.93;;
11418;SDS011;32800;44.876;13.880;2022-10-19T07:19:03;12.05;;;10.93;;
11418;SDS011;32800;44.876;13.880;2022-10-19T07:21:29;11.75;;;10.65;;
11418;SDS011;32800;44.876;13.880;2022-10-19T07:23:55;12.13;;;10.95;;
11418;SDS011;32800;44.876;13.880;2022-10-19T07:26:21;12.25;;;11.15;;
11418;SDS011;32800;44.876;13.880;2022-10-19T07:28:50;11.63;;;10.52;;
11418;SDS011;32800;44.876;13.880;2022-10-19T07:31:18;11.75;;;10.65;;
11418;SDS011;32800;44.876;13.880;2022-10-19T07:33:45;11.63;;;10.52;;
11418;SDS011;32800;44.876;13.880;2022-10-19T07:36:11;11.93;;;10.73;;
11418;SDS011;32800;44.876;13.880;2022-10-19T07:38:37;10.95;;;9.95;;
11418;SDS011;32800;44.876;13.880;2022-10-19T07:41:24;11.15;;;10.15;;
11418;SDS011;32800;44.876;13.880;2022-10-19T07:43:50;11.60;;;10.50;;
11418;SDS011;32800;44.876;13.880;2022-10-19T07:46:17;11.95;;;10.77;;
11418;SDS011;32800;44.876;13.880;2022-10-19T07:48:47;11.43;;;10.32;;
11418;SDS011;32800;44.876;13.880;2022-10-19T07:51:14;11.63;;;10.63;;
11418;SDS011;32800;44.876;13.880;2022-10-19T07:53:40;12.45;;;11.25;;
11418;SDS011;32800;44.876;13.880;2022-10-19T07:56:07;11.18;;;10.10;;
11418;SDS011;32800;44.876;13.880;2022-10-19T07:58:34;11.25;;;10.25;;
11418;SDS011;32800;44.876;13.880;2022-10-19T08:01:05;11.55;;;10.55;;
11418;SDS011;32800;44.876;13.880;2022-10-19T08:03:33;11.98;;;10.77;;
11418;SDS011;32800;44.876;13.880;2022-10-19T08:06:03;11.70;;;10.60;;
11418;SDS011;32800;44.876;13.880;2022-10-19T08:08:30;10.93;;;9.93;;
11418;SDS011;32800;44.876;13.880;2022-10-19T08:10:56;10.63;;;9.70;;
11418;SDS011;32800;44.876;13.880;2022-10-19T08:13:22;11.35;;;10.23;;
11418;SDS011;32800;44.876;13.880;2022-10-19T08:15:48;10.85;;;9.85;;
11418;SDS011;32800;44.876;13.880;2022-10-19T08:18:14;11.13;;;10.02;;
11418;SDS011;32800;44.876;13.880;2022-10-19T08:20:41;10.32;;;9.32;;
11418;SDS011;32800;44.876;13.880;2022-10-19T08:23:07;11.13;;;10.10;;
11418;SDS011;32800;44.876;13.880;2022-10-19T08:25:33;10.65;;;9.70;;
11418;SDS011;32800;44.876;13.880;2022-10-19T08:27:58;10.55;;;9.55;;
11418;SDS011;32800;44.876;13.880;2022-10-19T08:30:24;10.57;;;9.60;;
11418;SDS011;32800;44.876;13.880;2022-10-19T08:32:50;10.38;;;9.38;;
11418;SDS011;32800;44.876;13.880;2022-10-19T08:35:15;10.60;;;9.60;;
11418;SDS011;32800;44.876;13.880;2022-10-19T08:37:41;10.27;;;9.38;;
11418;SDS011;32800;44.876;13.880;2022-10-19T08:40:08;10.18;;;9.27;;
11418;SDS011;32800;44.876;13.880;2022-10-19T08:47:50;10.20;;;9.30;;
11418;SDS011;32800;44.876;13.880;2022-10-19T08:50:19;10.45;;;9.43;;
11418;SDS011;32800;44.876;13.880;2022-10-19T08:52:56;10.80;;;9.80;;
11418;SDS011;32800;44.876;13.880;2022-10-19T09:01:54;10.27;;;9.38;;
11418;SDS011;32800;44.876;13.880;2022-10-19T09:09:24;9.43;;;8.25;;
11418;SDS011;32800;44.876;13.880;2022-10-19T09:11:53;10.15;;;9.15;;
11418;SDS011;32800;44.876;13.880;2022-10-19T09:17:31;8.68;;;7.97;;
11418;SDS011;32800;44.876;13.880;2022-10-19T09:19:57;9.35;;;8.45;;
11418;SDS011;32800;44.876;13.880;2022-10-19T09:22:34;9.25;;;8.45;;
11418;SDS011;32800;44.876;13.880;2022-10-19T09:24:59;9.10;;;8.30;;
11418;SDS011;32800;44.876;13.880;2022-10-19T09:27:36;9.52;;;8.65;;
11418;SDS011;32800;44.876;13.880;2022-10-19T09:30:04;9.13;;;8.32;;
11418;SDS011;32800;44.876;13.880;2022-10-19T09:32:37;8.98;;;8.18;;
11418;SDS011;32800;44.876;13.880;2022-10-19T09:37:56;9.05;;;8.15;;
11418;SDS011;32800;44.876;13.880;2022-10-19T09:40:24;9.10;;;8.23;;
11418;SDS011;32800;44.876;13.880;2022-10-19T09:42:52;8.52;;;7.70;;
11418;SDS011;32800;44.876;13.880;2022-10-19T09:45:33;8.27;;;7.47;;
11418;SDS011;32800;44.876;13.880;2022-10-19T09:48:03;8.65;;;7.85;;
11418;SDS011;32800;44.876;13.880;2022-10-19T09:50:57;9.27;;;8.07;;
11418;SDS011;32800;44.876;13.880;2022-10-19T09:53:23;8.88;;;8.07;;
11418;SDS011;32800;44.876;13.880;2022-10-19T09:55:56;10.23;;;7.43;;
11418;SDS011;32800;44.876;13.880;2022-10-19T09:58:24;9.00;;;8.15;;
11418;SDS011;32800;44.876;13.880;2022-10-19T10:00:53;8.60;;;7.80;;
11418;SDS011;32800;44.876;13.880;2022-10-19T10:03:37;8.15;;;7.35;;
11418;SDS011;32800;44.876;13.880;2022-10-19T10:06:08;7.93;;;7.15;;
11418;SDS011;32800;44.876;13.880;2022-10-19T10:08:39;8.52;;;7.72;;
11418;SDS011;32800;44.876;13.880;2022-10-19T10:11:14;8.00;;;7.30;;
11418;SDS011;32800;44.876;13.880;2022-10-19T10:13:48;8.30;;;7.50;;
11418;SDS011;32800;44.876;13.880;2022-10-19T10:16:15;7.47;;;6.78;;
11418;SDS011;32800;44.876;13.880;2022-10-19T10:18:49;8.25;;;7.45;;
11418;SDS011;32800;44.876;13.880;2022-10-19T10:21:24;7.75;;;7.05;;
11418;SDS011;32800;44.876;13.880;2022-10-19T10:26:39;8.00;;;7.30;;
11418;SDS011;32800;44.876;13.880;2022-10-19T10:29:28;7.30;;;6.70;;
11418;SDS011;32800;44.876;13.880;2022-10-19T10:37:05;7.30;;;6.70;;
11418;SDS011;32800;44.876;13.880;2022-10-19T10:39:38;7.50;;;6.82;;
11418;SDS011;32800;44.876;13.880;2022-10-19T10:42:06;7.35;;;6.72;;
11418;SDS011;32800;44.876;13.880;2022-10-19T10:44:35;7.28;;;6.57;;
11418;SDS011;32800;44.876;13.880;2022-10-19T10:47:02;7.32;;;6.72;;
11418;SDS011;32800;44.876;13.880;2022-10-19T10:49:36;6.93;;;6.32;;
11418;SDS011;32800;44.876;13.880;2022-10-19T10:52:05;7.55;;;6.85;;
11418;SDS011;32800;44.876;13.880;2022-10-19T10:54:33;7.22;;;6.53;;
11418;SDS011;32800;44.876;13.880;2022-10-19T11:05:14;7.03;;;6.43;;
11418;SDS011;32800;44.876;13.880;2022-10-19T11:07:44;6.90;;;6.30;;
11418;SDS011;32800;44.876;13.880;2022-10-19T11:13:09;7.03;;;6.30;;
11418;SDS011;32800;44.876;13.880;2022-10-19T11:15:52;7.75;;;6.72;;
11418;SDS011;32800;44.876;13.880;2022-10-19T11:18:24;6.60;;;6.00;;
11418;SDS011;32800;44.876;13.880;2022-10-19T11:21:01;6.78;;;6.18;;
11418;SDS011;32800;44.876;13.880;2022-10-19T11:26:02;6.63;;;6.03;;
11418;SDS011;32800;44.876;13.880;2022-10-19T11:34:07;6.13;;;5.50;;
11418;SDS011;32800;44.876;13.880;2022-10-19T11:37:02;6.75;;;5.32;;
11418;SDS011;32800;44.876;13.880;2022-10-19T11:39:40;6.28;;;5.65;;
11418;SDS011;32800;44.876;13.880;2022-10-19T11:42:39;5.82;;;5.32;;
11418;SDS011;32800;44.876;13.880;2022-10-19T11:51:26;6.13;;;5.30;;
11418;SDS011;32800;44.876;13.880;2022-10-19T12:01:56;6.75;;;4.70;;
11418;SDS011;32800;44.876;13.880;2022-10-19T12:04:45;6.40;;;5.20;;
11418;SDS011;32800;44.876;13.880;2022-10-19T12:07:21;6.28;;;5.50;;
11418;SDS011;32800;44.876;13.880;2022-10-19T12:10:02;5.47;;;5.03;;
11418;SDS011;32800;44.876;13.880;2022-10-19T12:12:34;9.13;;;5.10;;
11418;SDS011;32800;44.876;13.880;2022-10-19T12:18:15;6.55;;;5.95;;
11418;SDS011;32800;44.876;13.880;2022-10-19T12:20:47;6.78;;;6.07;;
11418;SDS011;32800;44.876;13.880;2022-10-19T12:23:36;6.78;;;6.13;;
11418;SDS011;32800;44.876;13.880;2022-10-19T12:26:03;8.68;;;6.47;;
11418;SDS011;32800;44.876;13.880;2022-10-19T12:28:40;8.73;;;7.00;;
11418;SDS011;32800;44.876;13.880;2022-10-19T12:31:08;10.88;;;6.93;;
11418;SDS011;32800;44.876;13.880;2022-10-19T12:39:09;8.98;;;8.07;;
11418;SDS011;32800;44.876;13.880;2022-10-19T12:46:45;11.32;;;8.45;;
11418;SDS011;32800;44.876;13.880;2022-10-19T12:52:00;10.18;;;9.00;;
11418;SDS011;32800;44.876;13.880;2022-10-19T12:54:27;10.43;;;9.43;;
11418;SDS011;32800;44.876;13.880;2022-10-19T12:56:55;9.98;;;8.88;;
11418;SDS011;32800;44.876;13.880;2022-10-19T12:59:23;11.35;;;8.73;;
11418;SDS011;32800;44.876;13.880;2022-10-19T13:01:51;10.27;;;9.25;;
11418;SDS011;32800;44.876;13.880;2022-10-19T13:04:19;12.43;;;9.88;;
11418;SDS011;32800;44.876;13.880;2022-10-19T13:06:50;11.23;;;9.85;;
11418;SDS011;32800;44.876;13.880;2022-10-19T13:09:23;11.57;;;9.30;;
11418;SDS011;32800;44.876;13.880;2022-10-19T13:14:49;10.93;;;9.70;;
11418;SDS011;32800;44.876;13.880;2022-10-19T13:22:39;10.18;;;9.10;;
11418;SDS011;32800;44.876;13.880;2022-10-19T13:25:19;10.82;;;9.82;;
11418;SDS011;32800;44.876;13.880;2022-10-19T13:27:46;11.45;;;10.10;;
11418;SDS011;32800;44.876;13.880;2022-10-19T13:38:26;10.38;;;9.38;;
11418;SDS011;32800;44.876;13.880;2022-10-19T14:11:37;10.27;;;9.18;;
11418;SDS011;32800;44.876;13.880;2022-10-19T14:22:16;9.85;;;8.95;;
11418;SDS011;32800;44.876;13.880;2022-10-19T14:24:43;9.90;;;8.85;;
11418;SDS011;32800;44.876;13.880;2022-10-19T14:27:10;11.30;;;9.18;;
11418;SDS011;32800;44.876;13.880;2022-10-19T14:29:44;9.25;;;8.43;;
11418;SDS011;32800;44.876;13.880;2022-10-19T14:32:11;10.35;;;9.35;;
11418;SDS011;32800;44.876;13.880;2022-10-19T14:34:44;10.25;;;8.68;;
11418;SDS011;32800;44.876;13.880;2022-10-19T14:39:56;10.60;;;9.50;;
11418;SDS011;32800;44.876;13.880;2022-10-19T14:42:23;10.02;;;8.73;;
11418;SDS011;32800;44.876;13.880;2022-10-19T14:45:00;13.00;;;8.98;;
11418;SDS011;32800;44.876;13.880;2022-10-19T14:47:26;9.68;;;8.70;;
11418;SDS011;32800;44.876;13.880;2022-10-19T14:49:51;10.10;;;8.85;;
11418;SDS011;32800;44.876;13.880;2022-10-19T14:52:19;12.23;;;9.35;;
11418;SDS011;32800;44.876;13.880;2022-10-19T14:54:55;10.73;;;9.65;;
11418;SDS011;32800;44.876;13.880;2022-10-19T14:57:23;10.50;;;9.35;;
11418;SDS011;32800;44.876;13.880;2022-10-19T14:59:57;12.20;;;9.32;;
11418;SDS011;32800;44.876;13.880;2022-10-19T15:03:11;10.73;;;9.65;;
11418;SDS011;32800;44.876;13.880;2022-10-19T15:05:27;10.52;;;9.52;;
11418;SDS011;32800;44.876;13.880;2022-10-19T15:07:55;9.95;;;9.05;;
11418;SDS011;32800;44.876;13.880;2022-10-19T15:10:22;12.18;;;8.88;;
11418;SDS011;32800;44.876;13.880;2022-10-19T15:12:51;10.75;;;9.65;;
11418;SDS011;32800;44.876;13.880;2022-10-19T15:15:21;10.20;;;9.30;;
11418;SDS011;32800;44.876;13.880;2022-10-19T15:17:51;10.82;;;9.73;;
11418;SDS011;32800;44.876;13.880;2022-10-19T15:20:25;11.38;;;9.57;;
11418;SDS011;32800;44.876;13.880;2022-10-19T15:22:52;10.05;;;9.02;;
11418;SDS011;32800;44.876;13.880;2022-10-19T15:25:27;10.00;;;9.10;;
11418;SDS011;32800;44.876;13.880;2022-10-19T15:27:57;12.00;;;8.93;;
11418;SDS011;32800;44.876;13.880;2022-10-19T15:30:42;10.25;;;9.25;;
11418;SDS011;32800;44.876;13.880;2022-10-19T15:33:09;10.32;;;9.32;;
11418;SDS011;32800;44.876;13.880;2022-10-19T15:35:39;10.75;;;9.65;;
11418;SDS011;32800;44.876;13.880;2022-10-19T15:40:41;9.73;;;8.73;;
11418;SDS011;32800;44.876;13.880;2022-10-19T15:46:19;10.00;;;9.00;;
11418;SDS011;32800;44.876;13.880;2022-10-19T15:48:56;10.07;;;9.07;;
11418;SDS011;32800;44.876;13.880;2022-10-19T15:53:56;9.82;;;8.80;;
11418;SDS011;32800;44.876;13.880;2022-10-19T15:56:24;9.20;;;8.35;;
11418;SDS011;32800;44.876;13.880;2022-10-19T15:58:51;11.32;;;9.23;;
11418;SDS011;32800;44.876;13.880;2022-10-19T16:01:19;10.20;;;9.20;;
11418;SDS011;32800;44.876;13.880;2022-10-19T16:03:47;10.43;;;9.27;;
11418;SDS011;32800;44.876;13.880;2022-10-19T16:06:12;12.15;;;9.57;;
11418;SDS011;32800;44.876;13.880;2022-10-19T16:08:38;9.98;;;8.98;;
11418;SDS011;32800;44.876;13.880;2022-10-19T16:11:04;13.15;;;8.93;;
11418;SDS011;32800;44.876;13.880;2022-10-19T16:13:30;10.57;;;8.90;;
11418;SDS011;32800;44.876;13.880;2022-10-19T16:15:59;9.68;;;8.77;;
11418;SDS011;32800;44.876;13.880;2022-10-19T16:18:28;10.23;;;9.10;;
11418;SDS011;32800;44.876;13.880;2022-10-19T16:20:54;10.35;;;9.30;;
11418;SDS011;32800;44.876;13.880;2022-10-19T16:23:19;10.57;;;8.93;;
11418;SDS011;32800;44.876;13.880;2022-10-19T16:25:45;11.20;;;8.77;;
11418;SDS011;32800;44.876;13.880;2022-10-19T16:28:11;10.45;;;9.20;;
11418;SDS011;32800;44.876;13.880;2022-10-19T16:30:37;11.18;;;9.20;;
11418;SDS011;32800;44.876;13.880;2022-10-19T16:33:03;9.68;;;8.73;;
11418;SDS011;32800;44.876;13.880;2022-10-19T16:35:28;10.98;;;9.27;;
11418;SDS011;32800;44.876;13.880;2022-10-19T16:37:54;11.00;;;9.20;;
11418;SDS011;32800;44.876;13.880;2022-10-19T16:40:20;10.18;;;9.23;;
11418;SDS011;32800;44.876;13.880;2022-10-19T16:42:46;10.52;;;9.32;;
11418;SDS011;32800;44.876;13.880;2022-10-19T16:45:13;10.40;;;9.40;;
11418;SDS011;32800;44.876;13.880;2022-10-19T16:47:42;11.55;;;9.45;;
11418;SDS011;32800;44.876;13.880;2022-10-19T16:50:09;11.88;;;9.43;;
11418;SDS011;32800;44.876;13.880;2022-10-19T16:52:35;12.30;;;9.52;;
11418;SDS011;32800;44.876;13.880;2022-10-19T16:55:01;11.55;;;9.73;;
11418;SDS011;32800;44.876;13.880;2022-10-19T16:57:26;11.55;;;10.35;;
11418;SDS011;32800;44.876;13.880;2022-10-19T16:59:52;10.80;;;9.70;;
11418;SDS011;32800;44.876;13.880;2022-10-19T17:02:19;11.25;;;10.00;;
11418;SDS011;32800;44.876;13.880;2022-10-19T17:04:45;12.40;;;10.35;;
11418;SDS011;32800;44.876;13.880;2022-10-19T17:07:11;15.55;;;9.55;;
11418;SDS011;32800;44.876;13.880;2022-10-19T17:09:37;11.30;;;10.20;;
11418;SDS011;32800;44.876;13.880;2022-10-19T17:12:06;11.32;;;9.90;;
11418;SDS011;32800;44.876;13.880;2022-10-19T17:14:32;13.40;;;10.57;;
11418;SDS011;32800;44.876;13.880;2022-10-19T17:16:58;14.15;;;10.93;;
11418;SDS011;32800;44.876;13.880;2022-10-19T17:19:24;13.15;;;10.68;;